sensor_id;sensor_type;location;lat;lon;timestamp;temperature;humidity
41547;DHT22;27271;45.412;10.852;2023-05-07T00:00:06;16.10;99.90
41547;DHT22;27271;45.412;10.852;2023-05-07T00:03:31;16.10;99.90
41547;DHT22;27271;45.412;10.852;2023-05-07T00:06:54;16.00;99.90
41547;DHT22;27271;45.412;10.852;2023-05-07T00:10:17;16.00;99.90
41547;DHT22;27271;45.412;10.852;2023-05-07T00:13:39;16.00;99.90
41547;DHT22;27271;45.412;10.852;2023-05-07T00:17:02;16.00;99.90
41547;DHT22;27271;45.412;10.852;2023-05-07T00:20:24;15.90;99.90
41547;DHT22;27271;45.412;10.852;2023-05-07T00:23:46;15.90;99.90
41547;DHT22;27271;45.412;10.852;2023-05-07T00:27:08;15.90;99.90
41547;DHT22;27271;45.412;10.852;2023-05-07T00:30:30;16.00;99.90
41547;DHT22;27271;45.412;10.852;2023-05-07T00:33:52;16.00;99.90
41547;DHT22;27271;45.412;10.852;2023-05-07T00:37:14;16.00;99.90
41547;DHT22;27271;45.412;10.852;2023-05-07T00:40:36;16.00;99.90
41547;DHT22;27271;45.412;10.852;2023-05-07T00:43:58;16.00;99.90
41547;DHT22;27271;45.412;10.852;2023-05-07T00:47:20;16.00;99.90
41547;DHT22;27271;45.412;10.852;2023-05-07T00:50:43;16.00;99.90
41547;DHT22;27271;45.412;10.852;2023-05-07T00:54:06;16.00;96.60
41547;DHT22;27271;45.412;10.852;2023-05-07T00:57:28;16.00;92.90
41547;DHT22;27271;45.412;10.852;2023-05-07T01:00:50;16.00;99.90
41547;DHT22;27271;45.412;10.852;2023-05-07T01:04:12;16.00;99.90
41547;DHT22;27271;45.412;10.852;2023-05-07T01:07:35;16.10;66.40
41547;DHT22;27271;45.412;10.852;2023-05-07T01:10:58;16.10;18.50
41547;DHT22;27271;45.412;10.852;2023-05-07T01:14:22;16.20;5.50
41547;DHT22;27271;45.412;10.852;2023-05-07T01:17:45;16.20;1.00
41547;DHT22;27271;45.412;10.852;2023-05-07T01:21:17;16.20;3.30
41547;DHT22;27271;45.412;10.852;2023-05-07T01:24:40;16.20;37.60
41547;DHT22;27271;45.412;10.852;2023-05-07T01:28:03;16.20;69.40
41547;DHT22;27271;45.412;10.852;2023-05-07T01:31:29;16.10;43.80
41547;DHT22;27271;45.412;10.852;2023-05-07T01:34:53;16.00;58.50
41547;DHT22;27271;45.412;10.852;2023-05-07T01:38:16;15.90;99.90
41547;DHT22;27271;45.412;10.852;2023-05-07T01:41:39;15.90;99.90
41547;DHT22;27271;45.412;10.852;2023-05-07T01:45:02;15.90;99.90
41547;DHT22;27271;45.412;10.852;2023-05-07T01:48:25;15.80;99.90
41547;DHT22;27271;45.412;10.852;2023-05-07T01:51:48;15.70;99.90
41547;DHT22;27271;45.412;10.852;2023-05-07T01:55:10;15.60;99.90
41547;DHT22;27271;45.412;10.852;2023-05-07T01:58:32;15.50;1.00
41547;DHT22;27271;45.412;10.852;2023-05-07T02:01:56;15.50;1.00
41547;DHT22;27271;45.412;10.852;2023-05-07T02:05:18;15.50;99.90
41547;DHT22;27271;45.412;10.852;2023-05-07T02:08:44;15.60;99.90
41547;DHT22;27271;45.412;10.852;2023-05-07T02:12:08;15.70;99.90
41547;DHT22;27271;45.412;10.852;2023-05-07T02:15:30;15.70;99.90
41547;DHT22;27271;45.412;10.852;2023-05-07T02:18:55;15.70;99.90
41547;DHT22;27271;45.412;10.852;2023-05-07T02:22:18;15.70;99.90
41547;DHT22;27271;45.412;10.852;2023-05-07T02:25:40;15.70;99.90
41547;DHT22;27271;45.412;10.852;2023-05-07T02:29:02;15.70;99.90
41547;DHT22;27271;45.412;10.852;2023-05-07T02:32:25;15.70;99.90
41547;DHT22;27271;45.412;10.852;2023-05-07T02:35:48;15.80;99.90
41547;DHT22;27271;45.412;10.852;2023-05-07T02:39:10;15.90;99.90
41547;DHT22;27271;45.412;10.852;2023-05-07T02:42:32;16.00;99.90
41547;DHT22;27271;45.412;10.852;2023-05-07T02:46:05;16.00;99.90
41547;DHT22;27271;45.412;10.852;2023-05-07T02:49:31;16.00;99.90
41547;DHT22;27271;45.412;10.852;2023-05-07T02:52:53;16.00;99.90
41547;DHT22;27271;45.412;10.852;2023-05-07T02:56:16;16.00;99.90
41547;DHT22;27271;45.412;10.852;2023-05-07T02:59:38;16.00;99.90
41547;DHT22;27271;45.412;10.852;2023-05-07T03:03:01;16.10;99.90
41547;DHT22;27271;45.412;10.852;2023-05-07T03:06:23;16.00;99.90
41547;DHT22;27271;45.412;10.852;2023-05-07T03:09:45;15.90;99.90
41547;DHT22;27271;45.412;10.852;2023-05-07T03:13:07;15.90;99.90
41547;DHT22;27271;45.412;10.852;2023-05-07T03:16:29;15.80;99.90
41547;DHT22;27271;45.412;10.852;2023-05-07T03:19:52;15.80;99.90
41547;DHT22;27271;45.412;10.852;2023-05-07T03:23:14;15.80;99.90
41547;DHT22;27271;45.412;10.852;2023-05-07T03:26:36;15.70;99.90
41547;DHT22;27271;45.412;10.852;2023-05-07T03:29:59;15.60;99.90
41547;DHT22;27271;45.412;10.852;2023-05-07T03:33:21;15.50;1.00
41547;DHT22;27271;45.412;10.852;2023-05-07T03:36:44;15.40;1.00
41547;DHT22;27271;45.412;10.852;2023-05-07T03:40:08;15.30;1.00
41547;DHT22;27271;45.412;10.852;2023-05-07T03:43:39;15.20;99.90
41547;DHT22;27271;45.412;10.852;2023-05-07T03:47:04;15.10;99.90
41547;DHT22;27271;45.412;10.852;2023-05-07T03:50:27;14.90;99.90
41547;DHT22;27271;45.412;10.852;2023-05-07T03:53:49;14.80;99.90
41547;DHT22;27271;45.412;10.852;2023-05-07T03:57:11;14.70;99.90
41547;DHT22;27271;45.412;10.852;2023-05-07T04:00:34;14.70;99.90
41547;DHT22;27271;45.412;10.852;2023-05-07T04:04:09;14.60;99.90
41547;DHT22;27271;45.412;10.852;2023-05-07T04:07:31;14.60;1.00
41547;DHT22;27271;45.412;10.852;2023-05-07T04:10:57;14.60;1.00
41547;DHT22;27271;45.412;10.852;2023-05-07T04:14:23;14.70;1.00
41547;DHT22;27271;45.412;10.852;2023-05-07T04:17:45;14.80;99.90
41547;DHT22;27271;45.412;10.852;2023-05-07T04:21:16;14.80;99.90
41547;DHT22;27271;45.412;10.852;2023-05-07T04:24:39;14.90;99.90
41547;DHT22;27271;45.412;10.852;2023-05-07T04:28:02;14.90;99.90
41547;DHT22;27271;45.412;10.852;2023-05-07T04:31:25;15.00;99.90
41547;DHT22;27271;45.412;10.852;2023-05-07T04:34:49;15.10;99.90
41547;DHT22;27271;45.412;10.852;2023-05-07T04:38:11;15.30;99.90
41547;DHT22;27271;45.412;10.852;2023-05-07T04:41:36;15.50;99.90
41547;DHT22;27271;45.412;10.852;2023-05-07T04:45:00;15.70;99.90
41547;DHT22;27271;45.412;10.852;2023-05-07T04:48:26;15.80;99.90
41547;DHT22;27271;45.412;10.852;2023-05-07T04:51:49;15.90;99.90
41547;DHT22;27271;45.412;10.852;2023-05-07T04:55:15;16.30;16.60
41547;DHT22;27271;45.412;10.852;2023-05-07T04:58:37;16.60;99.90
41547;DHT22;27271;45.412;10.852;2023-05-07T05:01:59;16.80;99.90
41547;DHT22;27271;45.412;10.852;2023-05-07T05:05:23;17.00;99.90
41547;DHT22;27271;45.412;10.852;2023-05-07T05:08:47;17.20;22.00
41547;DHT22;27271;45.412;10.852;2023-05-07T05:12:10;17.60;24.10
41547;DHT22;27271;45.412;10.852;2023-05-07T05:15:33;18.10;99.90
41547;DHT22;27271;45.412;10.852;2023-05-07T05:18:56;18.70;99.90
41547;DHT22;27271;45.412;10.852;2023-05-07T05:22:19;19.30;89.40
41547;DHT22;27271;45.412;10.852;2023-05-07T05:25:43;19.90;53.50
41547;DHT22;27271;45.412;10.852;2023-05-07T05:29:07;20.50;1.00
41547;DHT22;27271;45.412;10.852;2023-05-07T05:32:33;21.40;1.00
41547;DHT22;27271;45.412;10.852;2023-05-07T05:35:56;21.30;1.00
41547;DHT22;27271;45.412;10.852;2023-05-07T05:39:38;21.60;1.00
41547;DHT22;27271;45.412;10.852;2023-05-07T05:43:02;22.20;1.00
41547;DHT22;27271;45.412;10.852;2023-05-07T05:46:25;22.20;1.00
41547;DHT22;27271;45.412;10.852;2023-05-07T05:49:48;22.50;1.00
41547;DHT22;27271;45.412;10.852;2023-05-07T05:53:11;23.20;1.00
41547;DHT22;27271;45.412;10.852;2023-05-07T05:56:34;24.10;1.00
41547;DHT22;27271;45.412;10.852;2023-05-07T05:59:57;24.40;1.00
41547;DHT22;27271;45.412;10.852;2023-05-07T06:03:19;24.90;1.00
41547;DHT22;27271;45.412;10.852;2023-05-07T06:06:42;25.30;1.00
41547;DHT22;27271;45.412;10.852;2023-05-07T06:10:05;24.80;1.00
41547;DHT22;27271;45.412;10.852;2023-05-07T06:13:28;24.70;1.00
41547;DHT22;27271;45.412;10.852;2023-05-07T06:16:50;24.50;1.00
41547;DHT22;27271;45.412;10.852;2023-05-07T06:20:12;24.50;1.00
41547;DHT22;27271;45.412;10.852;2023-05-07T06:23:35;24.70;1.00
41547;DHT22;27271;45.412;10.852;2023-05-07T06:26:59;25.50;1.00
41547;DHT22;27271;45.412;10.852;2023-05-07T06:30:23;26.70;1.00
41547;DHT22;27271;45.412;10.852;2023-05-07T06:33:45;26.80;1.00
41547;DHT22;27271;45.412;10.852;2023-05-07T06:37:12;26.10;1.00
41547;DHT22;27271;45.412;10.852;2023-05-07T06:40:49;26.10;1.00
41547;DHT22;27271;45.412;10.852;2023-05-07T06:44:11;26.40;1.00
41547;DHT22;27271;45.412;10.852;2023-05-07T06:47:41;26.40;1.00
41547;DHT22;27271;45.412;10.852;2023-05-07T06:51:03;26.50;1.00
41547;DHT22;27271;45.412;10.852;2023-05-07T06:54:26;26.50;1.00
41547;DHT22;27271;45.412;10.852;2023-05-07T06:57:48;27.50;1.00
41547;DHT22;27271;45.412;10.852;2023-05-07T07:01:11;28.20;1.00
41547;DHT22;27271;45.412;10.852;2023-05-07T07:04:35;27.80;1.00
41547;DHT22;27271;45.412;10.852;2023-05-07T07:08:01;28.10;1.00
41547;DHT22;27271;45.412;10.852;2023-05-07T07:11:23;28.30;1.00
41547;DHT22;27271;45.412;10.852;2023-05-07T07:14:45;28.50;1.00
41547;DHT22;27271;45.412;10.852;2023-05-07T07:18:08;29.50;1.00
41547;DHT22;27271;45.412;10.852;2023-05-07T07:21:31;30.10;1.00
41547;DHT22;27271;45.412;10.852;2023-05-07T07:24:53;30.20;1.00
41547;DHT22;27271;45.412;10.852;2023-05-07T07:28:20;29.00;1.00
41547;DHT22;27271;45.412;10.852;2023-05-07T07:31:43;26.90;1.00
41547;DHT22;27271;45.412;10.852;2023-05-07T07:35:05;26.60;1.00
41547;DHT22;27271;45.412;10.852;2023-05-07T07:38:28;25.50;1.00
41547;DHT22;27271;45.412;10.852;2023-05-07T07:41:50;24.90;1.00
41547;DHT22;27271;45.412;10.852;2023-05-07T07:45:14;25.60;1.00
41547;DHT22;27271;45.412;10.852;2023-05-07T07:48:42;26.20;1.00
41547;DHT22;27271;45.412;10.852;2023-05-07T07:52:04;25.90;1.00
41547;DHT22;27271;45.412;10.852;2023-05-07T07:55:29;26.30;1.00
41547;DHT22;27271;45.412;10.852;2023-05-07T07:58:54;27.70;1.00
41547;DHT22;27271;45.412;10.852;2023-05-07T08:02:17;28.60;1.00
41547;DHT22;27271;45.412;10.852;2023-05-07T08:05:40;28.20;1.00
41547;DHT22;27271;45.412;10.852;2023-05-07T08:09:02;27.90;1.00
41547;DHT22;27271;45.412;10.852;2023-05-07T08:12:25;26.60;1.00
41547;DHT22;27271;45.412;10.852;2023-05-07T08:15:48;26.40;1.00
41547;DHT22;27271;45.412;10.852;2023-05-07T08:19:10;27.00;1.00
41547;DHT22;27271;45.412;10.852;2023-05-07T08:22:34;26.40;1.00
41547;DHT22;27271;45.412;10.852;2023-05-07T08:25:56;27.10;1.00
41547;DHT22;27271;45.412;10.852;2023-05-07T08:29:20;27.00;1.00
41547;DHT22;27271;45.412;10.852;2023-05-07T08:32:42;26.50;1.00
41547;DHT22;27271;45.412;10.852;2023-05-07T08:36:04;27.00;1.00
41547;DHT22;27271;45.412;10.852;2023-05-07T08:39:27;28.30;1.00
41547;DHT22;27271;45.412;10.852;2023-05-07T08:42:52;30.60;1.00
41547;DHT22;27271;45.412;10.852;2023-05-07T08:46:18;31.50;1.00
41547;DHT22;27271;45.412;10.852;2023-05-07T08:49:49;31.30;1.00
41547;DHT22;27271;45.412;10.852;2023-05-07T08:53:13;31.40;1.00
41547;DHT22;27271;45.412;10.852;2023-05-07T08:56:37;32.00;1.00
41547;DHT22;27271;45.412;10.852;2023-05-07T08:59:59;30.70;1.00
41547;DHT22;27271;45.412;10.852;2023-05-07T09:03:22;30.80;1.00
41547;DHT22;27271;45.412;10.852;2023-05-07T09:06:46;31.40;1.00
41547;DHT22;27271;45.412;10.852;2023-05-07T09:10:10;31.30;1.00
41547;DHT22;27271;45.412;10.852;2023-05-07T09:13:34;30.40;1.00
41547;DHT22;27271;45.412;10.852;2023-05-07T09:16:57;30.80;1.00
41547;DHT22;27271;45.412;10.852;2023-05-07T09:20:20;32.10;1.00
41547;DHT22;27271;45.412;10.852;2023-05-07T09:23:42;33.20;99.90
41547;DHT22;27271;45.412;10.852;2023-05-07T09:27:06;31.20;1.00
41547;DHT22;27271;45.412;10.852;2023-05-07T09:30:31;31.50;1.00
41547;DHT22;27271;45.412;10.852;2023-05-07T09:33:56;31.60;1.00
41547;DHT22;27271;45.412;10.852;2023-05-07T09:37:26;30.50;1.00
41547;DHT22;27271;45.412;10.852;2023-05-07T09:41:11;29.60;1.00
41547;DHT22;27271;45.412;10.852;2023-05-07T09:44:53;29.10;1.00
41547;DHT22;27271;45.412;10.852;2023-05-07T09:48:19;28.50;1.00
41547;DHT22;27271;45.412;10.852;2023-05-07T09:51:47;27.90;1.00
41547;DHT22;27271;45.412;10.852;2023-05-07T09:55:12;28.30;1.00
41547;DHT22;27271;45.412;10.852;2023-05-07T09:58:37;28.70;1.00
41547;DHT22;27271;45.412;10.852;2023-05-07T10:02:01;29.00;1.00
41547;DHT22;27271;45.412;10.852;2023-05-07T10:05:29;29.90;1.00
41547;DHT22;27271;45.412;10.852;2023-05-07T10:08:54;31.20;1.00
41547;DHT22;27271;45.412;10.852;2023-05-07T10:12:18;31.50;1.00
41547;DHT22;27271;45.412;10.852;2023-05-07T10:15:41;31.90;1.00
41547;DHT22;27271;45.412;10.852;2023-05-07T10:19:05;32.10;1.00
41547;DHT22;27271;45.412;10.852;2023-05-07T10:22:32;32.10;99.90
41547;DHT22;27271;45.412;10.852;2023-05-07T10:25:55;32.00;99.90
41547;DHT22;27271;45.412;10.852;2023-05-07T10:29:49;32.20;99.90
41547;DHT22;27271;45.412;10.852;2023-05-07T10:33:13;31.60;99.90
41547;DHT22;27271;45.412;10.852;2023-05-07T10:36:38;30.40;99.90
41547;DHT22;27271;45.412;10.852;2023-05-07T10:40:02;30.30;1.00
41547;DHT22;27271;45.412;10.852;2023-05-07T10:43:41;30.50;1.00
41547;DHT22;27271;45.412;10.852;2023-05-07T10:47:11;31.00;99.90
41547;DHT22;27271;45.412;10.852;2023-05-07T10:50:40;31.20;99.90
41547;DHT22;27271;45.412;10.852;2023-05-07T10:57:38;31.30;99.90
41547;DHT22;27271;45.412;10.852;2023-05-07T11:01:56;30.40;1.00
41547;DHT22;27271;45.412;10.852;2023-05-07T11:05:30;30.70;99.90
41547;DHT22;27271;45.412;10.852;2023-05-07T11:09:18;30.20;99.90
41547;DHT22;27271;45.412;10.852;2023-05-07T11:12:52;29.50;1.00
41547;DHT22;27271;45.412;10.852;2023-05-07T11:16:23;28.30;1.00
41547;DHT22;27271;45.412;10.852;2023-05-07T11:19:56;28.60;1.00
41547;DHT22;27271;45.412;10.852;2023-05-07T11:27:23;28.90;1.00
41547;DHT22;27271;45.412;10.852;2023-05-07T11:30:47;28.80;1.00
41547;DHT22;27271;45.412;10.852;2023-05-07T11:34:12;29.00;1.00
41547;DHT22;27271;45.412;10.852;2023-05-07T11:37:35;29.20;1.00
41547;DHT22;27271;45.412;10.852;2023-05-07T11:40:59;29.80;1.00
41547;DHT22;27271;45.412;10.852;2023-05-07T11:44:22;29.80;99.90
41547;DHT22;27271;45.412;10.852;2023-05-07T11:47:44;29.90;1.00
41547;DHT22;27271;45.412;10.852;2023-05-07T11:51:07;30.00;99.90
41547;DHT22;27271;45.412;10.852;2023-05-07T11:54:37;30.30;99.90
41547;DHT22;27271;45.412;10.852;2023-05-07T11:57:59;30.10;1.00
41547;DHT22;27271;45.412;10.852;2023-05-07T12:01:21;29.50;1.00
41547;DHT22;27271;45.412;10.852;2023-05-07T12:04:44;29.60;1.00
41547;DHT22;27271;45.412;10.852;2023-05-07T12:08:06;29.80;99.90
41547;DHT22;27271;45.412;10.852;2023-05-07T12:11:28;30.30;99.90
41547;DHT22;27271;45.412;10.852;2023-05-07T12:14:50;30.40;99.90
41547;DHT22;27271;45.412;10.852;2023-05-07T12:18:13;30.40;99.90
41547;DHT22;27271;45.412;10.852;2023-05-07T12:21:35;30.10;99.90
41547;DHT22;27271;45.412;10.852;2023-05-07T12:24:58;30.00;99.90
41547;DHT22;27271;45.412;10.852;2023-05-07T12:28:20;30.00;99.90
41547;DHT22;27271;45.412;10.852;2023-05-07T12:31:42;30.80;99.90
41547;DHT22;27271;45.412;10.852;2023-05-07T12:35:06;30.80;99.90
41547;DHT22;27271;45.412;10.852;2023-05-07T12:38:37;30.00;99.90
41547;DHT22;27271;45.412;10.852;2023-05-07T12:42:00;29.30;99.90
41547;DHT22;27271;45.412;10.852;2023-05-07T12:45:22;29.30;99.90
41547;DHT22;27271;45.412;10.852;2023-05-07T12:48:44;29.20;99.90
41547;DHT22;27271;45.412;10.852;2023-05-07T12:52:11;29.30;1.00
41547;DHT22;27271;45.412;10.852;2023-05-07T12:55:41;29.10;1.00
41547;DHT22;27271;45.412;10.852;2023-05-07T12:59:04;28.70;99.90
41547;DHT22;27271;45.412;10.852;2023-05-07T13:02:53;28.70;99.90
41547;DHT22;27271;45.412;10.852;2023-05-07T13:06:15;29.10;99.90
41547;DHT22;27271;45.412;10.852;2023-05-07T13:09:37;29.20;1.00
41547;DHT22;27271;45.412;10.852;2023-05-07T13:12:59;29.30;99.90
41547;DHT22;27271;45.412;10.852;2023-05-07T13:16:22;29.40;99.90
41547;DHT22;27271;45.412;10.852;2023-05-07T13:19:44;29.20;99.90
41547;DHT22;27271;45.412;10.852;2023-05-07T13:23:06;29.00;99.90
41547;DHT22;27271;45.412;10.852;2023-05-07T13:26:30;29.20;99.90
41547;DHT22;27271;45.412;10.852;2023-05-07T13:29:52;29.10;1.00
41547;DHT22;27271;45.412;10.852;2023-05-07T13:33:14;28.70;99.90
41547;DHT22;27271;45.412;10.852;2023-05-07T13:36:37;28.90;99.90
41547;DHT22;27271;45.412;10.852;2023-05-07T13:40:02;29.00;99.90
41547;DHT22;27271;45.412;10.852;2023-05-07T13:43:24;29.10;99.90
41547;DHT22;27271;45.412;10.852;2023-05-07T13:46:46;29.10;99.90
41547;DHT22;27271;45.412;10.852;2023-05-07T13:50:09;29.20;99.90
41547;DHT22;27271;45.412;10.852;2023-05-07T13:53:33;28.90;99.90
41547;DHT22;27271;45.412;10.852;2023-05-07T13:56:55;28.30;99.90
41547;DHT22;27271;45.412;10.852;2023-05-07T14:00:17;28.30;99.90
41547;DHT22;27271;45.412;10.852;2023-05-07T14:03:39;28.00;99.90
41547;DHT22;27271;45.412;10.852;2023-05-07T14:07:02;28.00;99.90
41547;DHT22;27271;45.412;10.852;2023-05-07T14:10:24;28.20;99.90
41547;DHT22;27271;45.412;10.852;2023-05-07T14:13:46;29.00;99.90
41547;DHT22;27271;45.412;10.852;2023-05-07T14:17:08;29.00;99.90
41547;DHT22;27271;45.412;10.852;2023-05-07T14:20:30;29.50;99.90
41547;DHT22;27271;45.412;10.852;2023-05-07T14:23:53;28.90;99.90
41547;DHT22;27271;45.412;10.852;2023-05-07T14:27:15;29.30;99.90
41547;DHT22;27271;45.412;10.852;2023-05-07T14:30:37;29.60;99.90
41547;DHT22;27271;45.412;10.852;2023-05-07T14:33:59;29.70;99.90
41547;DHT22;27271;45.412;10.852;2023-05-07T14:37:21;29.80;99.90
41547;DHT22;27271;45.412;10.852;2023-05-07T14:40:43;29.60;99.90
41547;DHT22;27271;45.412;10.852;2023-05-07T14:44:05;29.30;99.90
41547;DHT22;27271;45.412;10.852;2023-05-07T14:47:27;29.10;99.90
41547;DHT22;27271;45.412;10.852;2023-05-07T14:50:50;29.00;99.90
41547;DHT22;27271;45.412;10.852;2023-05-07T14:54:13;28.40;99.90
41547;DHT22;27271;45.412;10.852;2023-05-07T14:57:35;28.30;99.90
41547;DHT22;27271;45.412;10.852;2023-05-07T15:00:58;28.10;99.90
41547;DHT22;27271;45.412;10.852;2023-05-07T15:04:21;27.90;99.90
41547;DHT22;27271;45.412;10.852;2023-05-07T15:07:43;27.40;99.90
41547;DHT22;27271;45.412;10.852;2023-05-07T15:11:06;27.30;99.90
41547;DHT22;27271;45.412;10.852;2023-05-07T15:14:28;26.90;99.90
41547;DHT22;27271;45.412;10.852;2023-05-07T15:17:50;26.80;99.90
41547;DHT22;27271;45.412;10.852;2023-05-07T15:21:12;26.70;99.90
41547;DHT22;27271;45.412;10.852;2023-05-07T15:24:35;26.90;99.90
41547;DHT22;27271;45.412;10.852;2023-05-07T15:27:57;26.90;99.90
41547;DHT22;27271;45.412;10.852;2023-05-07T15:31:19;26.70;99.90
41547;DHT22;27271;45.412;10.852;2023-05-07T15:34:41;26.70;99.90
41547;DHT22;27271;45.412;10.852;2023-05-07T15:38:04;26.90;99.90
41547;DHT22;27271;45.412;10.852;2023-05-07T15:41:27;27.00;99.90
41547;DHT22;27271;45.412;10.852;2023-05-07T15:44:49;27.00;99.90
41547;DHT22;27271;45.412;10.852;2023-05-07T15:48:11;27.20;99.90
41547;DHT22;27271;45.412;10.852;2023-05-07T15:51:34;26.80;99.90
41547;DHT22;27271;45.412;10.852;2023-05-07T15:54:57;26.70;1.00
41547;DHT22;27271;45.412;10.852;2023-05-07T15:58:20;26.30;99.90
41547;DHT22;27271;45.412;10.852;2023-05-07T16:01:42;26.20;1.00
41547;DHT22;27271;45.412;10.852;2023-05-07T16:05:06;26.00;1.00
41547;DHT22;27271;45.412;10.852;2023-05-07T16:08:32;25.90;1.00
41547;DHT22;27271;45.412;10.852;2023-05-07T16:11:54;25.90;1.00
41547;DHT22;27271;45.412;10.852;2023-05-07T16:15:17;26.00;1.00
41547;DHT22;27271;45.412;10.852;2023-05-07T16:18:39;26.10;1.00
41547;DHT22;27271;45.412;10.852;2023-05-07T16:22:01;26.40;1.00
41547;DHT22;27271;45.412;10.852;2023-05-07T16:25:23;26.70;99.90
41547;DHT22;27271;45.412;10.852;2023-05-07T16:28:45;26.50;1.00
41547;DHT22;27271;45.412;10.852;2023-05-07T16:32:08;26.30;1.00
41547;DHT22;27271;45.412;10.852;2023-05-07T16:35:30;26.00;1.00
41547;DHT22;27271;45.412;10.852;2023-05-07T16:38:53;25.90;1.00
41547;DHT22;27271;45.412;10.852;2023-05-07T16:42:15;25.80;1.00
41547;DHT22;27271;45.412;10.852;2023-05-07T16:45:37;25.70;1.00
41547;DHT22;27271;45.412;10.852;2023-05-07T16:48:59;25.40;1.00
41547;DHT22;27271;45.412;10.852;2023-05-07T16:52:21;25.30;1.00
41547;DHT22;27271;45.412;10.852;2023-05-07T16:55:43;25.20;1.00
41547;DHT22;27271;45.412;10.852;2023-05-07T16:59:05;25.10;1.00
41547;DHT22;27271;45.412;10.852;2023-05-07T17:02:28;25.20;1.00
41547;DHT22;27271;45.412;10.852;2023-05-07T17:05:51;25.30;1.00
41547;DHT22;27271;45.412;10.852;2023-05-07T17:09:13;25.30;1.00
41547;DHT22;27271;45.412;10.852;2023-05-07T17:12:35;25.20;1.00
41547;DHT22;27271;45.412;10.852;2023-05-07T17:15:58;25.20;1.00
41547;DHT22;27271;45.412;10.852;2023-05-07T17:19:21;25.10;1.00
41547;DHT22;27271;45.412;10.852;2023-05-07T17:22:43;25.00;1.00
41547;DHT22;27271;45.412;10.852;2023-05-07T17:26:11;24.90;1.00
41547;DHT22;27271;45.412;10.852;2023-05-07T17:29:34;24.80;1.00
41547;DHT22;27271;45.412;10.852;2023-05-07T17:32:56;24.60;1.00
41547;DHT22;27271;45.412;10.852;2023-05-07T17:36:33;24.40;1.00
41547;DHT22;27271;45.412;10.852;2023-05-07T17:39:55;24.30;1.00
41547;DHT22;27271;45.412;10.852;2023-05-07T17:43:17;24.20;1.00
41547;DHT22;27271;45.412;10.852;2023-05-07T17:46:39;24.10;1.00
41547;DHT22;27271;45.412;10.852;2023-05-07T17:50:01;24.00;1.00
41547;DHT22;27271;45.412;10.852;2023-05-07T17:53:26;23.90;1.00
41547;DHT22;27271;45.412;10.852;2023-05-07T17:56:49;23.80;1.00
41547;DHT22;27271;45.412;10.852;2023-05-07T18:00:11;23.70;1.00
41547;DHT22;27271;45.412;10.852;2023-05-07T18:03:34;23.60;1.00
41547;DHT22;27271;45.412;10.852;2023-05-07T18:06:57;23.50;1.00
41547;DHT22;27271;45.412;10.852;2023-05-07T18:10:19;23.30;1.00
41547;DHT22;27271;45.412;10.852;2023-05-07T18:13:41;23.00;1.00
41547;DHT22;27271;45.412;10.852;2023-05-07T18:17:03;22.80;1.00
41547;DHT22;27271;45.412;10.852;2023-05-07T18:20:25;22.60;1.00
41547;DHT22;27271;45.412;10.852;2023-05-07T18:23:47;22.40;1.00
41547;DHT22;27271;45.412;10.852;2023-05-07T18:27:10;22.20;1.00
41547;DHT22;27271;45.412;10.852;2023-05-07T18:30:34;22.00;1.00
41547;DHT22;27271;45.412;10.852;2023-05-07T18:33:56;21.80;1.00
41547;DHT22;27271;45.412;10.852;2023-05-07T18:37:18;21.70;1.00
41547;DHT22;27271;45.412;10.852;2023-05-07T18:40:40;21.60;1.00
41547;DHT22;27271;45.412;10.852;2023-05-07T18:44:05;21.50;1.00
41547;DHT22;27271;45.412;10.852;2023-05-07T18:47:27;21.30;1.00
41547;DHT22;27271;45.412;10.852;2023-05-07T18:50:49;21.20;1.00
41547;DHT22;27271;45.412;10.852;2023-05-07T18:54:11;21.10;1.00
41547;DHT22;27271;45.412;10.852;2023-05-07T18:57:33;21.10;1.00
41547;DHT22;27271;45.412;10.852;2023-05-07T19:00:55;21.10;1.00
41547;DHT22;27271;45.412;10.852;2023-05-07T19:04:17;21.20;1.00
41547;DHT22;27271;45.412;10.852;2023-05-07T19:07:39;21.20;1.00
41547;DHT22;27271;45.412;10.852;2023-05-07T19:11:02;21.20;1.00
41547;DHT22;27271;45.412;10.852;2023-05-07T19:14:24;21.00;1.00
41547;DHT22;27271;45.412;10.852;2023-05-07T19:17:46;20.90;1.00
41547;DHT22;27271;45.412;10.852;2023-05-07T19:21:08;20.70;1.00
41547;DHT22;27271;45.412;10.852;2023-05-07T19:24:31;20.60;1.00
41547;DHT22;27271;45.412;10.852;2023-05-07T19:27:53;20.60;1.00
41547;DHT22;27271;45.412;10.852;2023-05-07T19:31:18;20.60;9.50
41547;DHT22;27271;45.412;10.852;2023-05-07T19:34:40;20.60;57.60
41547;DHT22;27271;45.412;10.852;2023-05-07T19:38:02;20.70;42.40
41547;DHT22;27271;45.412;10.852;2023-05-07T19:41:27;20.80;55.20
41547;DHT22;27271;45.412;10.852;2023-05-07T19:44:49;20.80;33.00
41547;DHT22;27271;45.412;10.852;2023-05-07T19:48:12;20.70;69.20
41547;DHT22;27271;45.412;10.852;2023-05-07T19:51:34;20.60;76.90
41547;DHT22;27271;45.412;10.852;2023-05-07T19:54:56;20.60;95.30
41547;DHT22;27271;45.412;10.852;2023-05-07T19:58:18;20.40;99.90
41547;DHT22;27271;45.412;10.852;2023-05-07T20:01:40;20.30;99.90
41547;DHT22;27271;45.412;10.852;2023-05-07T20:05:02;20.20;99.90
41547;DHT22;27271;45.412;10.852;2023-05-07T20:08:26;20.20;99.90
41547;DHT22;27271;45.412;10.852;2023-05-07T20:11:48;20.10;99.90
41547;DHT22;27271;45.412;10.852;2023-05-07T20:15:10;20.10;99.90
41547;DHT22;27271;45.412;10.852;2023-05-07T20:18:32;20.10;99.90
41547;DHT22;27271;45.412;10.852;2023-05-07T20:21:54;20.10;99.90
41547;DHT22;27271;45.412;10.852;2023-05-07T20:25:17;20.10;99.90
41547;DHT22;27271;45.412;10.852;2023-05-07T20:28:39;20.00;90.10
41547;DHT22;27271;45.412;10.852;2023-05-07T20:32:01;20.00;97.50
41547;DHT22;27271;45.412;10.852;2023-05-07T20:35:24;20.00;99.90
41547;DHT22;27271;45.412;10.852;2023-05-07T20:38:46;20.00;86.90
41547;DHT22;27271;45.412;10.852;2023-05-07T20:42:08;19.80;99.90
41547;DHT22;27271;45.412;10.852;2023-05-07T20:45:30;19.80;99.90
41547;DHT22;27271;45.412;10.852;2023-05-07T20:48:52;19.80;99.90
41547;DHT22;27271;45.412;10.852;2023-05-07T20:52:14;19.90;97.50
41547;DHT22;27271;45.412;10.852;2023-05-07T20:55:36;19.80;99.90
41547;DHT22;27271;45.412;10.852;2023-05-07T20:58:58;19.70;99.90
41547;DHT22;27271;45.412;10.852;2023-05-07T21:02:20;19.70;99.90
41547;DHT22;27271;45.412;10.852;2023-05-07T21:05:42;19.60;99.90
41547;DHT22;27271;45.412;10.852;2023-05-07T21:09:04;19.70;99.90
41547;DHT22;27271;45.412;10.852;2023-05-07T21:12:27;19.80;99.90
41547;DHT22;27271;45.412;10.852;2023-05-07T21:15:49;19.70;99.90
41547;DHT22;27271;45.412;10.852;2023-05-07T21:19:11;19.70;99.90
41547;DHT22;27271;45.412;10.852;2023-05-07T21:22:33;19.70;99.90